Time;durP1;ratioP1;P1;durP2;ratioP2;P2;SDS_P1;SDS_P2;PMS_P1;PMS_P2;Temp;Humidity;BMP_temperature;BMP_pressure;BME280_temperature;BME280_humidity;BME280_pressure;Samples;Min_cycle;Max_cycle;Signal;HPM_P1;HPM_P2
2022/12/01 00:00:10;;;;;;;53.10;18.58;;;5.50;99.90;;;;;;6124264;19;19933;-67
2022/12/01 00:02:14;;;;;;;51.58;19.15;;;5.50;99.90;;;;;;6125414;19;19926;-67
2022/12/01 00:04:18;;;;;;;53.58;20.92;;;;;;;;;;6124091;19;19919;-68
2022/12/01 00:06:23;;;;;;;51.25;19.58;;;5.50;99.90;;;;;;6124009;19;19928;-67
2022/12/01 00:08:27;;;;;;;54.78;20.02;;;5.50;99.90;;;;;;6124018;19;20305;-66
2022/12/01 00:10:28;;;;;;;53.95;19.52;;;;;;;;;;6125475;19;19943;-67
2022/12/01 00:12:32;;;;;;;54.95;21.13;;;;;;;;;;6123595;19;19918;-67
2022/12/01 00:14:39;;;;;;;51.90;18.80;;;5.50;99.90;;;;;;6123653;19;19914;-67
2022/12/01 00:16:43;;;;;;;48.60;19.92;;;5.20;99.90;;;;;;6123209;19;20038;-67
2022/12/01 00:18:51;;;;;;;46.40;19.83;;;5.40;99.90;;;;;;6123481;19;19919;-68
2022/12/01 00:20:55;;;;;;;52.95;21.02;;;5.40;99.90;;;;;;6129702;19;19915;-66
2022/12/01 00:22:59;;;;;;;49.05;20.10;;;5.60;99.90;;;;;;6130556;19;19947;-67
2022/12/01 00:25:03;;;;;;;50.28;19.35;;;;;;;;;;6131173;19;20417;-67
2022/12/01 00:27:07;;;;;;;50.92;20.02;;;5.40;99.90;;;;;;6129378;19;19944;-68
2022/12/01 00:29:11;;;;;;;45.28;18.52;;;5.60;99.90;;;;;;6132584;19;19917;-67
2022/12/01 00:31:17;;;;;;;52.10;19.25;;;5.50;99.90;;;;;;6129126;19;19910;-67
2022/12/01 00:33:21;;;;;;;47.40;20.27;;;5.60;99.90;;;;;;6128879;19;19940;-67
2022/12/01 00:35:25;;;;;;;52.47;21.08;;;;;;;;;;6130813;19;19929;-66
2022/12/01 00:37:32;;;;;;;50.05;20.17;;;5.60;99.90;;;;;;6128573;19;19939;-67
2022/12/01 00:39:36;;;;;;;57.83;20.77;;;;;;;;;;6129344;19;19951;-67
2022/12/01 00:41:39;;;;;;;47.85;21.30;;;5.50;99.90;;;;;;6129067;19;20279;-67
2022/12/01 00:43:43;;;;;;;55.85;21.35;;;5.60;99.90;;;;;;6128639;19;20283;-67
2022/12/01 00:45:47;;;;;;;52.95;21.05;;;5.20;99.90;;;;;;6132263;19;19915;-67
2022/12/01 00:47:54;;;;;;;56.35;22.77;;;5.50;99.90;;;;;;6130631;19;19927;-67
2022/12/01 00:49:57;;;;;;;55.05;20.80;;;5.40;99.90;;;;;;6128568;19;19918;-67
2022/12/01 00:52:01;;;;;;;50.88;20.30;;;5.40;99.90;;;;;;6125511;19;20018;-67
2022/12/01 00:54:05;;;;;;;58.38;20.55;;;5.60;99.90;;;;;;6128320;19;20726;-67
2022/12/01 00:56:10;;;;;;;54.80;22.40;;;;;;;;;;6127474;19;19918;-67
2022/12/01 00:58:14;;;;;;;51.60;20.45;;;;;;;;;;6128017;19;20345;-68
2022/12/01 01:00:19;;;;;;;56.88;21.65;;;5.50;99.90;;;;;;6128343;19;19918;-67
2022/12/01 01:02:23;;;;;;;53.03;21.13;;;;;;;;;;6129732;19;19925;-67
2022/12/01 01:04:31;;;;;;;56.58;21.45;;;5.50;99.90;;;;;;6127982;19;19919;-67
2022/12/01 01:06:35;;;;;;;53.00;22.40;;;;;;;;;;6129460;19;19921;-67
2022/12/01 01:08:39;;;;;;;59.53;21.60;;;5.50;99.90;;;;;;6129007;19;20277;-67
2022/12/01 01:10:45;;;;;;;55.28;21.48;;;5.60;99.90;;;;;;6130304;19;19937;-67
2022/12/01 01:12:49;;;;;;;57.88;21.80;;;5.40;99.90;;;;;;6130439;19;19923;-67
2022/12/01 01:14:52;;;;;;;56.97;22.25;;;5.50;99.90;;;;;;6128337;19;19926;-67
2022/12/01 01:16:57;;;;;;;56.22;20.17;;;;;;;;;;6127875;19;19931;-67
2022/12/01 01:19:01;;;;;;;54.08;21.63;;;5.70;99.90;;;;;;6126908;19;19918;-67
2022/12/01 01:21:10;;;;;;;58.88;21.83;;;5.60;99.90;;;;;;6128158;19;19919;-67
2022/12/01 01:23:14;;;;;;;53.95;21.23;;;5.40;99.90;;;;;;6128047;19;20017;-68
2022/12/01 01:25:18;;;;;;;57.15;22.10;;;;;;;;;;6127194;19;19951;-67
2022/12/01 01:27:21;;;;;;;56.10;21.70;;;5.40;99.90;;;;;;6127821;19;19926;-67
2022/12/01 01:29:25;;;;;;;55.35;20.50;;;5.60;99.90;;;;;;6130471;19;20011;-67
2022/12/01 01:31:32;;;;;;;56.50;21.58;;;5.50;99.90;;;;;;6128306;19;19926;-67
2022/12/01 01:33:36;;;;;;;53.10;21.58;;;5.40;99.90;;;;;;6130000;19;19933;-67
2022/12/01 01:35:40;;;;;;;58.03;22.05;;;5.40;99.90;;;;;;6127721;19;19922;-67
2022/12/01 01:37:46;;;;;;;59.15;22.00;;;5.50;99.90;;;;;;6126930;19;19943;-67
2022/12/01 01:39:51;;;;;;;58.85;22.40;;;;;;;;;;6127503;19;19934;-68
2022/12/01 01:41:54;;;;;;;52.08;20.83;;;5.00;99.90;;;;;;6127192;19;19922;-68
2022/12/01 01:44:00;;;;;;;52.00;21.40;;;5.40;99.90;;;;;;6128695;19;19922;-67
2022/12/01 01:46:04;;;;;;;51.85;20.70;;;;;;;;;;6127019;19;20025;-67
2022/12/01 01:48:08;;;;;;;52.80;20.38;;;;;;;;;;6128827;19;19959;-67
2022/12/01 01:50:15;;;;;;;53.20;21.05;;;5.40;99.90;;;;;;6128200;19;20260;-67
2022/12/01 01:52:20;;;;;;;53.20;21.75;;;5.50;99.90;;;;;;6126397;19;19942;-67
2022/12/01 01:54:31;;;;;;;51.95;20.15;;;5.50;99.90;;;;;;6126861;19;19926;-67
2022/12/01 01:56:38;;;;;;;54.80;21.52;;;5.50;99.90;;;;;;6127239;19;19914;-67
2022/12/01 01:58:42;;;;;;;59.42;20.88;;;5.40;99.90;;;;;;6128681;19;19922;-68
2022/12/01 02:00:47;;;;;;;56.13;21.63;;;5.70;99.90;;;;;;6126064;19;19975;-67
2022/12/01 02:02:52;;;;;;;59.42;22.65;;;5.30;99.90;;;;;;6126628;19;19947;-67
2022/12/01 02:05:00;;;;;;;59.08;22.52;;;5.30;99.90;;;;;;6128117;19;20050;-67
2022/12/01 02:07:05;;;;;;;53.35;19.52;;;5.80;99.90;;;;;;6129539;19;19918;-67
2022/12/01 02:09:09;;;;;;;60.08;23.15;;;;;;;;;;6129273;19;19939;-67
2022/12/01 02:11:47;;;;;;;50.63;20.65;;;5.30;99.90;;;;;;6128230;19;19929;-68
2022/12/01 02:14:01;;;;;;;60.85;22.00;;;5.30;99.90;;;;;;6126881;19;20379;-68
2022/12/01 02:16:14;;;;;;;55.92;21.00;;;5.60;99.90;;;;;;6128317;19;19926;-67
2022/12/01 02:18:26;;;;;;;57.85;22.13;;;5.40;99.90;;;;;;6126281;19;19917;-67
2022/12/01 02:21:05;;;;;;;60.78;22.52;;;5.30;99.90;;;;;;6126227;19;19948;-67
2022/12/01 02:23:47;;;;;;;52.83;20.40;;;5.60;99.90;;;;;;6126355;19;19943;-67
2022/12/01 02:26:05;;;;;;;58.03;22.80;;;5.70;99.90;;;;;;6124331;19;19914;-67
2022/12/01 02:28:27;;;;;;;56.53;22.02;;;5.50;99.90;;;;;;6126398;19;19923;-68
2022/12/01 02:30:40;;;;;;;61.67;22.20;;;5.50;99.90;;;;;;6126292;19;19951;-67
2022/12/01 02:32:54;;;;;;;57.30;21.30;;;5.50;99.90;;;;;;6126131;19;19919;-67
2022/12/01 02:35:02;;;;;;;54.45;21.83;;;5.70;99.90;;;;;;6123986;19;20345;-68
2022/12/01 02:37:12;;;;;;;53.47;21.83;;;5.30;99.90;;;;;;6126797;19;19959;-67
2022/12/01 02:39:22;;;;;;;55.45;22.60;;;5.60;99.90;;;;;;6125988;19;19910;-67
2022/12/01 02:41:29;;;;;;;60.53;20.98;;;5.50;99.90;;;;;;6127382;19;19922;-67
2022/12/01 02:43:37;;;;;;;56.60;22.38;;;5.40;99.90;;;;;;6125994;19;19915;-67
2022/12/01 02:45:50;;;;;;;64.25;24.77;;;5.70;99.90;;;;;;6125828;19;19925;-68
2022/12/01 02:47:58;;;;;;;58.65;21.40;;;5.60;99.90;;;;;;6125848;19;20337;-67
2022/12/01 02:50:03;;;;;;;62.00;23.17;;;5.50;99.90;;;;;;6124207;19;19915;-67
2022/12/01 02:52:08;;;;;;;70.78;25.48;;;5.40;99.90;;;;;;6125838;19;19943;-67
2022/12/01 02:54:14;;;;;;;57.65;21.92;;;5.50;99.90;;;;;;6125843;19;19940;-67
2022/12/01 02:56:23;;;;;;;57.72;21.48;;;5.80;99.90;;;;;;6127779;19;19926;-67
2022/12/01 02:58:27;;;;;;;64.28;24.05;;;5.50;99.90;;;;;;6125670;19;19925;-67
2022/12/01 03:00:33;;;;;;;61.60;22.35;;;5.40;99.90;;;;;;6126611;19;19923;-68
2022/12/01 03:02:50;;;;;;;65.07;21.60;;;5.50;99.90;;;;;;6124660;19;20333;-67
2022/12/01 03:05:03;;;;;;;61.88;22.27;;;5.50;99.90;;;;;;6125293;19;19919;-67
2022/12/01 03:07:16;;;;;;;59.78;22.67;;;5.50;99.90;;;;;;6125337;19;19919;-67
2022/12/01 03:09:28;;;;;;;59.70;22.42;;;5.60;99.90;;;;;;6124578;19;20313;-67
2022/12/01 03:11:40;;;;;;;63.30;22.45;;;5.70;99.90;;;;;;6125532;19;19951;-67
2022/12/01 03:13:53;;;;;;;57.80;21.15;;;5.80;99.90;;;;;;6127095;19;19922;-68
2022/12/01 03:16:03;;;;;;;65.50;23.23;;;5.60;99.90;;;;;;6125328;19;19918;-67
2022/12/01 03:18:20;;;;;;;60.92;22.42;;;5.50;99.90;;;;;;6126273;19;19922;-67
2022/12/01 03:20:29;;;;;;;58.53;22.77;;;5.30;99.90;;;;;;6125293;19;19910;-67
2022/12/01 03:22:37;;;;;;;60.85;20.88;;;5.40;99.90;;;;;;6124958;19;19915;-67
2022/12/01 03:24:43;;;;;;;60.80;21.85;;;5.40;99.90;;;;;;6120260;19;20015;-66
2022/12/01 03:26:51;;;;;;;63.05;22.83;;;5.50;99.90;;;;;;6124567;19;20011;-67
2022/12/01 03:28:58;;;;;;;60.50;22.45;;;5.70;99.90;;;;;;6125707;19;20375;-67
2022/12/01 03:31:06;;;;;;;61.72;22.95;;;5.60;99.90;;;;;;6124917;19;19911;-67
2022/12/01 03:33:19;;;;;;;65.65;24.02;;;5.40;99.90;;;;;;6124615;19;19980;-67
2022/12/01 03:35:26;;;;;;;67.00;24.73;;;5.50;99.90;;;;;;6127513;19;20357;-67
2022/12/01 03:37:34;;;;;;;60.55;22.63;;;5.40;99.90;;;;;;6123864;19;19911;-67
2022/12/01 03:39:41;;;;;;;63.60;21.95;;;5.70;99.90;;;;;;6124348;19;19960;-67
2022/12/01 03:41:49;;;;;;;69.15;25.58;;;5.70;99.90;;;;;;6125206;19;19966;-67
2022/12/01 03:44:05;;;;;;;55.47;21.42;;;5.30;99.90;;;;;;6127243;19;19923;-67
2022/12/01 03:46:13;;;;;;;63.25;22.60;;;5.30;99.90;;;;;;6124343;19;19914;-67
2022/12/01 03:48:20;;;;;;;61.15;23.98;;;5.70;99.90;;;;;;6124104;19;19943;-67
2022/12/01 03:50:31;;;;;;;65.63;23.67;;;5.50;99.90;;;;;;6127390;19;19922;-67
2022/12/01 03:52:46;;;;;;;59.50;21.83;;;5.40;99.90;;;;;;6127488;19;19925;-67
2022/12/01 03:54:57;;;;;;;57.75;23.40;;;5.50;99.90;;;;;;6125621;19;19922;-66
2022/12/01 03:57:06;;;;;;;60.70;23.42;;;5.70;99.90;;;;;;6127771;19;19922;-66
2022/12/01 03:59:12;;;;;;;61.95;22.27;;;5.40;99.90;;;;;;6129700;19;19923;-67
2022/12/01 04:01:16;;;;;;;65.50;23.70;;;5.30;99.90;;;;;;6127690;19;19912;-67
2022/12/01 04:03:27;;;;;;;65.90;24.15;;;5.50;99.90;;;;;;6129746;19;20372;-67
2022/12/01 04:05:31;;;;;;;70.28;24.05;;;;;;;;;;6131156;19;19922;-67
2022/12/01 04:07:35;;;;;;;71.15;24.05;;;5.70;99.90;;;;;;6130222;19;19935;-67
2022/12/01 04:09:38;;;;;;;65.43;23.85;;;5.50;99.90;;;;;;6132751;19;19906;-67
2022/12/01 04:13:58;;;;;;;68.95;24.65;;;5.70;99.90;;;;;;6128828;19;19933;-68
2022/12/01 04:16:03;;;;;;;61.35;23.77;;;;;;;;;;6129522;19;19919;-67
2022/12/01 04:18:07;;;;;;;65.18;22.75;;;5.30;99.90;;;;;;6127735;19;19907;-67
2022/12/01 04:20:16;;;;;;;63.40;22.52;;;5.60;99.90;;;;;;6128864;19;19918;-67
2022/12/01 04:22:20;;;;;;;;;;;5.60;99.90;;;;;;6132012;19;19982;-67
2022/12/01 04:24:24;;;;;;;54.47;21.45;;;;;;;;;;6129704;19;19926;-67
2022/12/01 04:26:28;;;;;;;59.75;23.60;;;5.60;99.90;;;;;;6129064;19;19919;-67
2022/12/01 04:28:32;;;;;;;64.80;23.95;;;5.50;99.90;;;;;;6130831;19;19910;-67
2022/12/01 04:30:36;;;;;;;58.80;23.52;;;;;;;;;;6129050;19;19944;-67
2022/12/01 04:32:41;;;;;;;63.28;23.10;;;5.50;99.90;;;;;;6129014;19;19918;-67
2022/12/01 04:34:45;;;;;;;58.70;22.80;;;5.50;99.90;;;;;;6128988;19;19926;-67
2022/12/01 04:36:51;;;;;;;53.53;21.58;;;5.40;99.90;;;;;;6128001;19;19946;-67
2022/12/01 04:38:55;;;;;;;54.20;21.92;;;;;;;;;;6126793;19;19918;-67
2022/12/01 04:40:59;;;;;;;61.38;21.73;;;5.40;99.90;;;;;;6120966;19;20025;-67
2022/12/01 04:43:03;;;;;;;60.35;22.02;;;5.70;99.90;;;;;;6128675;19;19911;-67
2022/12/01 04:45:08;;;;;;;59.95;22.38;;;5.20;99.90;;;;;;6130299;19;19982;-67
2022/12/01 04:47:12;;;;;;;55.08;21.67;;;5.40;99.90;;;;;;6129907;19;19930;-67
2022/12/01 04:49:16;;;;;;;65.25;23.45;;;5.50;99.90;;;;;;6128593;19;19922;-67
2022/12/01 04:51:21;;;;;;;61.83;21.88;;;5.40;99.90;;;;;;6128929;19;19918;-67
2022/12/01 04:53:27;;;;;;;58.17;21.77;;;5.40;99.90;;;;;;6128517;19;19923;-67
2022/12/01 04:55:31;;;;;;;63.05;21.52;;;5.30;99.90;;;;;;6128212;19;19967;-67
2022/12/01 04:57:35;;;;;;;61.60;22.08;;;5.60;99.90;;;;;;6126640;19;19923;-67
2022/12/01 04:59:39;;;;;;;64.30;23.70;;;5.50;99.90;;;;;;6128465;19;20340;-66
2022/12/01 05:01:45;;;;;;;55.65;21.38;;;5.30;99.90;;;;;;6128634;19;19944;-68
2022/12/01 05:03:50;;;;;;;56.63;20.70;;;5.50;99.90;;;;;;6130516;19;19961;-67
2022/12/01 05:06:02;;;;;;;59.92;22.65;;;5.40;99.90;;;;;;6126142;19;19911;-67
2022/12/01 05:08:06;;;;;;;66.20;22.75;;;5.30;99.90;;;;;;6129299;19;19933;-67
2022/12/01 05:10:14;;;;;;;57.63;21.98;;;5.50;99.90;;;;;;6129692;19;19911;-66
2022/12/01 05:12:18;;;;;;;58.40;20.92;;;5.40;99.90;;;;;;6128123;19;19926;-67
2022/12/01 05:14:22;;;;;;;60.95;22.33;;;5.50;99.90;;;;;;6126931;19;19923;-67
2022/12/01 05:16:28;;;;;;;59.33;20.77;;;5.30;99.90;;;;;;6127997;19;19938;-67
2022/12/01 05:18:31;;;;;;;60.03;21.85;;;5.40;99.90;;;;;;6128665;19;20035;-67
2022/12/01 05:22:51;;;;;;;61.42;22.25;;;5.40;99.90;;;;;;6126158;19;19914;-67
2022/12/01 05:24:55;;;;;;;55.90;20.67;;;;;;;;;;6129477;19;19922;-68
2022/12/01 05:27:02;;;;;;;66.28;22.63;;;5.60;99.90;;;;;;6125571;19;19922;-67
2022/12/01 05:29:06;;;;;;;60.83;21.48;;;5.40;99.90;;;;;;6127455;19;19910;-67
2022/12/01 05:31:10;;;;;;;56.65;21.10;;;5.50;99.90;;;;;;6128014;19;19971;-67
2022/12/01 05:33:14;;;;;;;54.17;19.70;;;5.50;99.90;;;;;;6127981;19;20341;-67
2022/12/01 05:35:18;;;;;;;57.47;20.73;;;6.10;99.90;;;;;;6127117;19;19939;-67
2022/12/01 05:37:22;;;;;;;47.15;19.02;;;5.40;99.90;;;;;;6127160;19;20278;-67
2022/12/01 05:39:26;;;;;;;54.20;20.63;;;5.50;99.90;;;;;;6127175;19;19938;-67
2022/12/01 05:41:30;;;;;;;55.95;21.05;;;5.40;99.90;;;;;;6127092;19;19990;-67
2022/12/01 05:43:36;;;;;;;56.65;20.88;;;5.40;99.90;;;;;;6130316;19;19922;-67
2022/12/01 05:45:40;;;;;;;49.55;18.48;;;5.40;99.90;;;;;;6126946;19;19914;-67
2022/12/01 05:47:44;;;;;;;57.47;19.60;;;;;;;;;;6127773;19;19933;-67
2022/12/01 05:49:49;;;;;;;51.30;19.63;;;;;;;;;;6129773;19;20336;-67
2022/12/01 05:51:52;;;;;;;49.42;20.00;;;5.50;99.90;;;;;;6127173;19;19918;-67
2022/12/01 05:53:56;;;;;;;54.42;20.35;;;5.40;99.90;;;;;;6127904;19;19974;-67
2022/12/01 05:56:00;;;;;;;51.33;19.00;;;5.50;99.90;;;;;;6124992;19;19935;-66
2022/12/01 05:58:04;;;;;;;47.40;18.38;;;;;;;;;;6127605;19;20377;-67
2022/12/01 06:00:14;;;;;;;52.58;20.33;;;5.70;99.90;;;;;;6125649;19;20428;-68
2022/12/01 06:02:18;;;;;;;51.67;18.85;;;5.40;99.90;;;;;;6130386;19;19980;-67
2022/12/01 06:04:23;;;;;;;50.00;19.30;;;5.40;99.90;;;;;;6127083;19;19918;-67
2022/12/01 06:06:27;;;;;;;51.40;18.02;;;5.30;99.90;;;;;;6127133;19;20264;-67
2022/12/01 06:08:31;;;;;;;50.47;19.15;;;;;;;;;;6125582;19;19925;-67
2022/12/01 06:10:35;;;;;;;50.20;18.15;;;;;;;;;;6125957;19;19951;-67
2022/12/01 06:12:39;;;;;;;44.53;17.35;;;5.30;99.90;;;;;;6130406;19;19925;-67
2022/12/01 06:14:43;;;;;;;45.35;19.02;;;5.40;99.90;;;;;;6126767;19;19911;-67
2022/12/01 06:16:49;;;;;;;46.50;17.75;;;5.60;99.90;;;;;;6126272;19;19919;-67
2022/12/01 06:18:53;;;;;;;42.22;17.50;;;;;;;;;;6124509;19;19926;-66
2022/12/01 06:20:57;;;;;;;47.05;18.02;;;5.40;99.90;;;;;;6125823;19;19943;-67
2022/12/01 06:23:01;;;;;;;48.92;17.85;;;5.40;99.90;;;;;;6126294;19;19914;-67
2022/12/01 06:25:06;;;;;;;50.25;19.33;;;5.50;99.90;;;;;;6128971;19;19915;-67
2022/12/01 06:27:10;;;;;;;49.10;17.70;;;5.50;99.90;;;;;;6126583;19;20656;-67
2022/12/01 06:29:14;;;;;;;50.45;18.88;;;5.30;99.90;;;;;;6128968;19;19907;-66
2022/12/01 06:31:18;;;;;;;43.83;17.05;;;;;;;;;;6126581;19;19939;-67
2022/12/01 06:33:25;;;;;;;40.95;17.70;;;5.40;99.90;;;;;;6131004;19;19943;-65
2022/12/01 06:35:29;;;;;;;51.03;19.20;;;5.50;99.90;;;;;;6129724;19;20267;-66
2022/12/01 06:37:33;;;;;;;49.75;18.77;;;5.40;99.90;;;;;;6126604;19;19925;-67
2022/12/01 06:39:37;;;;;;;42.50;17.98;;;5.30;99.90;;;;;;6124983;19;19918;-67
2022/12/01 06:41:41;;;;;;;44.22;16.55;;;5.60;99.90;;;;;;6125662;19;19930;-67
2022/12/01 06:43:45;;;;;;;48.85;17.58;;;;;;;;;;6125840;19;19915;-68
2022/12/01 06:45:49;;;;;;;43.58;17.30;;;5.50;99.90;;;;;;6128818;19;20337;-67
2022/12/01 06:47:55;;;;;;;47.65;17.73;;;5.30;99.90;;;;;;6127727;19;19914;-67
2022/12/01 06:50:02;;;;;;;45.35;17.50;;;5.30;99.90;;;;;;6126433;19;19915;-68
2022/12/01 06:52:06;;;;;;;43.10;17.42;;;5.80;99.90;;;;;;6125507;19;20002;-68
2022/12/01 06:54:13;;;;;;;45.75;17.75;;;5.60;99.90;;;;;;6127329;19;19923;-68
2022/12/01 06:56:17;;;;;;;44.78;17.15;;;5.60;99.90;;;;;;6125634;19;19915;-68
2022/12/01 06:58:21;;;;;;;46.97;18.02;;;;;;;;;;6124819;19;19935;-68
2022/12/01 07:00:26;;;;;;;42.85;17.65;;;5.40;99.90;;;;;;6127822;19;20408;-68
2022/12/01 07:02:30;;;;;;;45.15;17.35;;;5.40;99.90;;;;;;6122688;19;19943;-68
2022/12/01 07:04:33;;;;;;;45.30;16.73;;;5.30;99.90;;;;;;6123565;19;19918;-67
2022/12/01 07:06:40;;;;;;;45.33;17.33;;;5.30;99.90;;;;;;6128123;19;19918;-66
2022/12/01 07:08:44;;;;;;;44.85;17.00;;;5.40;99.90;;;;;;6127198;19;20038;-70
2022/12/01 07:10:48;;;;;;;45.97;17.55;;;;;;;;;;6126667;19;19957;-71
2022/12/01 07:12:52;;;;;;;47.33;18.08;;;;;;;;;;6125251;19;19918;-70
2022/12/01 07:14:56;;;;;;;50.47;18.25;;;;;;;;;;6125488;19;20251;-70
2022/12/01 07:17:01;;;;;;;50.65;18.33;;;5.40;99.90;;;;;;6124933;19;19986;-70
2022/12/01 07:19:07;;;;;;;49.95;19.00;;;5.40;99.90;;;;;;6123863;19;20352;-74
2022/12/01 07:21:13;;;;;;;44.08;16.52;;;5.50;99.90;;;;;;6124978;19;19924;-66
2022/12/01 07:23:20;;;;;;;45.22;16.75;;;5.50;99.90;;;;;;6127115;19;20345;-68
2022/12/01 07:25:24;;;;;;;50.80;19.05;;;;;;;;;;6125237;19;19984;-67
2022/12/01 07:27:31;;;;;;;45.63;17.50;;;5.40;99.90;;;;;;6124589;19;19938;-67
2022/12/01 07:29:35;;;;;;;45.28;17.95;;;5.50;99.90;;;;;;6123834;19;20023;-67
2022/12/01 07:31:40;;;;;;;49.22;17.05;;;5.50;99.90;;;;;;6125264;19;19922;-66
2022/12/01 07:33:44;;;;;;;42.75;15.57;;;5.40;99.90;;;;;;6124656;19;19915;-66
2022/12/01 07:35:48;;;;;;;45.90;17.70;;;5.20;99.90;;;;;;6126502;19;19947;-67
2022/12/01 07:37:56;;;;;;;45.95;17.30;;;5.40;99.90;;;;;;6124869;19;20345;-67
2022/12/01 07:40:02;;;;;;;46.60;18.20;;;5.40;99.90;;;;;;6123453;19;19915;-67
2022/12/01 07:42:07;;;;;;;46.05;17.10;;;;;;;;;;6124241;19;19923;-66
2022/12/01 07:44:11;;;;;;;47.92;18.55;;;5.50;99.90;;;;;;6122925;19;19939;-66
2022/12/01 07:46:17;;;;;;;48.35;18.63;;;5.30;99.90;;;;;;6126703;19;20400;-67
2022/12/01 07:48:21;;;;;;;45.35;17.02;;;5.40;99.90;;;;;;6124443;19;20398;-67
2022/12/01 07:50:25;;;;;;;51.00;17.27;;;;;;;;;;6124736;19;20508;-67
2022/12/01 07:52:29;;;;;;;46.75;17.17;;;;;;;;;;6124972;19;19911;-66
2022/12/01 07:54:33;;;;;;;47.15;16.98;;;5.70;99.90;;;;;;6124377;19;19918;-64
2022/12/01 07:56:39;;;;;;;51.92;17.00;;;5.40;99.90;;;;;;6123428;19;19907;-67
2022/12/01 07:58:44;;;;;;;44.22;16.77;;;5.50;99.90;;;;;;6123704;19;19915;-67
2022/12/01 08:00:48;;;;;;;41.40;16.67;;;5.80;99.90;;;;;;6125746;19;19926;-67
2022/12/01 08:02:52;;;;;;;45.83;16.13;;;5.40;99.90;;;;;;6123935;19;19910;-67
2022/12/01 08:04:56;;;;;;;48.40;16.98;;;5.40;99.90;;;;;;6123234;19;20676;-66
2022/12/01 08:07:00;;;;;;;44.17;17.27;;;5.80;99.90;;;;;;6123590;19;19911;-67
2022/12/01 08:09:04;;;;;;;43.83;16.67;;;5.60;99.90;;;;;;6123831;19;20279;-66
2022/12/01 08:11:13;;;;;;;46.38;17.98;;;5.50;99.90;;;;;;6125331;19;19926;-67
2022/12/01 08:13:20;;;;;;;43.20;16.83;;;5.10;99.90;;;;;;6123819;19;20021;-66
2022/12/01 08:15:24;;;;;;;43.47;16.80;;;;;;;;;;6124274;19;19943;-66
2022/12/01 08:17:28;;;;;;;47.70;19.27;;;5.70;99.90;;;;;;6123640;19;19939;-66
2022/12/01 08:19:32;;;;;;;44.00;16.77;;;;;;;;;;6123466;19;20432;-66
2022/12/01 08:21:36;;;;;;;46.75;17.55;;;;;;;;;;6122304;19;20324;-67
2022/12/01 08:23:40;;;;;;;43.13;17.65;;;5.60;99.90;;;;;;6126794;19;19918;-67
2022/12/01 08:25:44;;;;;;;45.13;17.10;;;5.70;99.90;;;;;;6123297;19;20281;-64
2022/12/01 08:27:48;;;;;;;48.67;17.80;;;5.60;99.90;;;;;;6118871;19;20089;-66
2022/12/01 08:29:54;;;;;;;51.72;17.75;;;5.60;99.90;;;;;;6120961;19;19930;-66
2022/12/01 08:31:59;;;;;;;43.17;17.63;;;5.70;99.90;;;;;;6124114;19;19922;-66
2022/12/01 08:34:03;;;;;;;48.50;18.17;;;;;;;;;;6124360;19;19926;-67
2022/12/01 08:36:08;;;;;;;46.38;18.35;;;5.80;99.90;;;;;;6122521;19;19930;-66
2022/12/01 08:38:12;;;;;;;47.95;17.67;;;5.60;99.90;;;;;;6121240;19;20290;-66
2022/12/01 08:40:17;;;;;;;49.55;19.50;;;5.70;99.90;;;;;;6124219;19;19927;-66
2022/12/01 08:42:20;;;;;;;44.47;17.00;;;5.50;99.90;;;;;;6131660;19;19927;-66
2022/12/01 08:44:24;;;;;;;46.38;17.73;;;5.60;99.90;;;;;;6128833;19;19926;-66
2022/12/01 08:46:34;;;;;;;43.78;18.17;;;5.60;99.90;;;;;;6128315;19;19971;-66
2022/12/01 08:48:38;;;;;;;49.22;17.05;;;5.80;99.90;;;;;;6128562;19;19918;-66
2022/12/01 08:50:42;;;;;;;44.88;17.13;;;5.60;99.90;;;;;;6128785;19;19938;-66
2022/12/01 08:52:46;;;;;;;48.80;18.92;;;;;;;;;;6128397;19;19918;-66
2022/12/01 08:54:50;;;;;;;46.58;19.40;;;5.60;99.90;;;;;;6128560;19;19947;-66
2022/12/01 08:56:54;;;;;;;45.97;18.55;;;;;;;;;;6128048;19;19957;-66
2022/12/01 08:58:58;;;;;;;51.80;20.75;;;5.60;99.90;;;;;;6127720;19;19921;-67
2022/12/01 09:01:04;;;;;;;50.55;19.42;;;5.80;99.90;;;;;;6131166;19;19943;-66
2022/12/01 09:03:11;;;;;;;55.47;20.15;;;5.70;99.90;;;;;;6128611;19;20341;-66
2022/12/01 09:05:15;;;;;;;53.53;20.05;;;;;;;;;;6129287;19;19926;-66
2022/12/01 09:07:20;;;;;;;49.97;19.27;;;5.90;99.90;;;;;;6128001;19;20293;-66
2022/12/01 09:09:27;;;;;;;46.88;18.73;;;5.90;99.90;;;;;;6128130;19;19951;-66
2022/12/01 09:11:31;;;;;;;50.00;17.80;;;5.80;99.90;;;;;;6127875;19;19935;-66
2022/12/01 09:13:35;;;;;;;46.25;17.55;;;5.90;99.90;;;;;;6127888;19;19959;-66
2022/12/01 09:15:39;;;;;;;50.28;18.45;;;5.90;99.90;;;;;;6128312;19;19918;-66
2022/12/01 09:17:43;;;;;;;51.50;18.73;;;;;;;;;;6128097;19;20006;-66
2022/12/01 09:19:50;;;;;;;51.50;19.48;;;5.90;99.90;;;;;;6126573;19;19929;-67
2022/12/01 09:21:54;;;;;;;45.95;17.35;;;5.90;99.90;;;;;;6128363;19;19926;-66
2022/12/01 09:23:59;;;;;;;47.15;19.15;;;5.60;99.90;;;;;;6128108;19;19915;-66
2022/12/01 09:26:02;;;;;;;45.70;17.42;;;6.10;99.90;;;;;;6127451;19;20369;-66
2022/12/01 09:28:07;;;;;;;49.72;18.50;;;;;;;;;;6127373;19;19922;-67
2022/12/01 09:30:11;;;;;;;52.67;18.10;;;5.90;99.90;;;;;;6127831;19;20282;-67
2022/12/01 09:32:15;;;;;;;44.50;18.38;;;6.00;99.90;;;;;;6127774;19;19959;-67
2022/12/01 09:34:21;;;;;;;46.15;18.05;;;6.00;99.90;;;;;;6126756;19;19948;-67
2022/12/01 09:36:28;;;;;;;46.05;18.08;;;5.70;99.90;;;;;;6127509;19;19914;-66
2022/12/01 09:38:34;;;;;;;45.45;18.27;;;5.80;99.90;;;;;;6129451;19;19918;-66
2022/12/01 09:40:41;;;;;;;42.47;17.10;;;6.20;99.90;;;;;;6125645;19;19919;-66
2022/12/01 09:42:47;;;;;;;45.08;17.60;;;6.20;99.90;;;;;;6127148;19;20290;-66
2022/12/01 09:44:53;;;;;;;42.03;16.63;;;6.00;99.90;;;;;;6120570;19;20011;-66
2022/12/01 09:47:02;;;;;;;45.75;17.88;;;6.20;99.90;;;;;;6127049;19;19947;-66
2022/12/01 09:49:07;;;;;;;;;;;6.20;99.90;;;;;;6132078;19;19943;-67
2022/12/01 09:51:15;;;;;;;42.53;16.52;;;5.50;99.90;;;;;;6129551;19;19919;-66
2022/12/01 09:53:25;;;;;;;44.72;16.13;;;6.10;99.90;;;;;;6128827;19;19923;-66
2022/12/01 09:55:32;;;;;;;44.40;16.33;;;6.30;99.90;;;;;;6126009;19;19911;-66
2022/12/01 09:57:39;;;;;;;37.92;16.65;;;6.00;99.90;;;;;;6127202;19;19914;-66
2022/12/01 09:59:44;;;;;;;41.10;16.20;;;6.30;99.90;;;;;;6125992;19;19922;-67
2022/12/01 10:01:53;;;;;;;40.40;16.42;;;5.90;99.90;;;;;;6127124;19;19942;-67
2022/12/01 10:04:02;;;;;;;41.47;15.85;;;6.00;99.90;;;;;;6127163;19;19922;-66
2022/12/01 10:06:09;;;;;;;39.65;15.77;;;6.10;99.90;;;;;;6125188;19;19911;-67
2022/12/01 10:08:17;;;;;;;42.83;16.50;;;6.10;99.90;;;;;;6128842;19;19923;-67
2022/12/01 10:10:29;;;;;;;44.78;16.70;;;6.30;99.90;;;;;;6126427;19;20282;-67
2022/12/01 10:12:36;;;;;;;43.90;17.25;;;6.30;99.90;;;;;;6126364;19;19922;-66
2022/12/01 10:14:40;;;;;;;43.03;16.30;;;6.20;99.90;;;;;;6126643;19;19930;-66
2022/12/01 10:16:49;;;;;;;44.33;16.90;;;6.10;99.90;;;;;;6126516;19;20363;-66
2022/12/01 10:19:04;;;;;;;40.70;16.80;;;6.10;99.90;;;;;;6126153;19;19911;-66
2022/12/01 10:21:15;;;;;;;43.22;16.23;;;6.20;99.90;;;;;;6125008;19;19926;-67
2022/12/01 10:23:44;;;;;;;37.38;15.10;;;5.90;99.90;;;;;;6128779;19;19947;-65
2022/12/01 10:25:58;;;;;;;39.25;14.50;;;6.10;99.90;;;;;;6126017;19;19934;-66
2022/12/01 10:28:16;;;;;;;31.52;14.85;;;6.00;99.90;;;;;;6126149;19;20259;-65
2022/12/01 10:30:23;;;;;;;44.20;15.38;;;6.20;99.90;;;;;;6126289;19;19918;-65
2022/12/01 10:32:31;;;;;;;34.78;14.23;;;6.10;99.90;;;;;;6126187;19;20290;-66
2022/12/01 10:34:39;;;;;;;38.83;15.98;;;6.40;99.90;;;;;;6125725;19;19923;-66
2022/12/01 10:36:43;;;;;;;41.30;15.65;;;6.40;99.90;;;;;;6124800;19;19922;-66
2022/12/01 10:38:46;;;;;;;37.05;14.93;;;6.20;99.90;;;;;;6125664;19;19910;-66
2022/12/01 10:40:54;;;;;;;37.15;16.30;;;6.60;99.90;;;;;;6124804;19;19930;-66
2022/12/01 10:42:58;;;;;;;43.30;15.70;;;6.60;99.90;;;;;;6125412;19;19946;-66
2022/12/01 10:45:04;;;;;;;44.17;16.25;;;6.30;99.90;;;;;;6125832;19;20015;-66
2022/12/01 10:47:19;;;;;;;36.50;17.13;;;6.30;99.90;;;;;;6113589;19;19923;-68
2022/12/01 10:49:35;;;;;;;39.58;15.88;;;6.40;99.90;;;;;;6122161;19;20246;-72
2022/12/01 10:51:53;;;;;;;40.35;16.10;;;6.50;99.90;;;;;;6126256;19;19925;-72
2022/12/01 10:54:10;;;;;;;32.50;15.65;;;6.50;99.90;;;;;;6122317;19;19948;-73
2022/12/01 10:56:19;;;;;;;39.47;14.30;;;6.10;99.90;;;;;;6126322;19;19923;-73
2022/12/01 10:58:24;;;;;;;36.47;16.10;;;6.70;99.90;;;;;;6124963;19;19930;-73
2022/12/01 11:00:31;;;;;;;38.67;17.00;;;6.50;99.90;;;;;;6121355;19;20043;-72
2022/12/01 11:02:36;;;;;;;36.95;15.05;;;6.40;99.90;;;;;;6126061;19;20417;-75
2022/12/01 11:04:44;;;;;;;39.28;15.23;;;6.30;99.90;;;;;;6124910;19;20002;-75